sensor_id;sensor_type;location;lat;lon;timestamp;temperature;humidity
10964;DHT22;5534;48.784;9.190;2023-04-29T00:02:19;14.40;99.90
10964;DHT22;5534;48.784;9.190;2023-04-29T00:04:44;14.50;99.90
10964;DHT22;5534;48.784;9.190;2023-04-29T00:07:10;14.40;99.90
10964;DHT22;5534;48.784;9.190;2023-04-29T00:09:40;14.40;99.90
10964;DHT22;5534;48.784;9.190;2023-04-29T00:12:06;14.40;99.90
10964;DHT22;5534;48.784;9.190;2023-04-29T00:14:32;14.40;99.90
10964;DHT22;5534;48.784;9.190;2023-04-29T00:16:58;14.50;99.90
10964;DHT22;5534;48.784;9.190;2023-04-29T00:19:24;14.50;99.90
10964;DHT22;5534;48.784;9.190;2023-04-29T00:21:50;14.40;99.90
10964;DHT22;5534;48.784;9.190;2023-04-29T00:24:16;14.50;99.90
10964;DHT22;5534;48.784;9.190;2023-04-29T00:26:42;14.40;99.90
10964;DHT22;5534;48.784;9.190;2023-04-29T00:29:08;14.60;99.90
10964;DHT22;5534;48.784;9.190;2023-04-29T00:31:33;14.50;99.90
10964;DHT22;5534;48.784;9.190;2023-04-29T00:33:59;14.50;99.90
10964;DHT22;5534;48.784;9.190;2023-04-29T00:36:25;14.40;99.90
10964;DHT22;5534;48.784;9.190;2023-04-29T00:38:51;14.50;99.90
10964;DHT22;5534;48.784;9.190;2023-04-29T00:41:16;14.70;99.90
10964;DHT22;5534;48.784;9.190;2023-04-29T00:43:42;14.60;99.90
10964;DHT22;5534;48.784;9.190;2023-04-29T00:46:08;14.60;99.90
10964;DHT22;5534;48.784;9.190;2023-04-29T00:48:35;14.70;99.90
10964;DHT22;5534;48.784;9.190;2023-04-29T00:51:01;14.50;99.90
10964;DHT22;5534;48.784;9.190;2023-04-29T00:53:28;14.40;99.90
10964;DHT22;5534;48.784;9.190;2023-04-29T00:55:54;14.40;99.90
10964;DHT22;5534;48.784;9.190;2023-04-29T00:58:20;14.20;99.90
10964;DHT22;5534;48.784;9.190;2023-04-29T01:00:48;14.20;99.90
10964;DHT22;5534;48.784;9.190;2023-04-29T01:03:14;14.20;99.90
10964;DHT22;5534;48.784;9.190;2023-04-29T01:05:40;14.20;99.90
10964;DHT22;5534;48.784;9.190;2023-04-29T01:11:18;14.30;99.90
10964;DHT22;5534;48.784;9.190;2023-04-29T01:13:54;14.30;99.90
10964;DHT22;5534;48.784;9.190;2023-04-29T01:16:28;14.30;99.90
10964;DHT22;5534;48.784;9.190;2023-04-29T01:19:02;14.30;99.90
10964;DHT22;5534;48.784;9.190;2023-04-29T01:21:30;14.30;99.90
10964;DHT22;5534;48.784;9.190;2023-04-29T01:23:56;14.30;99.90
10964;DHT22;5534;48.784;9.190;2023-04-29T01:26:23;14.30;99.90
10964;DHT22;5534;48.784;9.190;2023-04-29T01:31:40;14.30;99.90
10964;DHT22;5534;48.784;9.190;2023-04-29T01:34:26;14.20;99.90
10964;DHT22;5534;48.784;9.190;2023-04-29T01:42:23;14.30;99.90
10964;DHT22;5534;48.784;9.190;2023-04-29T01:44:54;14.30;99.90
10964;DHT22;5534;48.784;9.190;2023-04-29T01:47:21;14.20;99.90
10964;DHT22;5534;48.784;9.190;2023-04-29T01:49:48;14.30;99.90
10964;DHT22;5534;48.784;9.190;2023-04-29T01:52:14;14.30;99.90
10964;DHT22;5534;48.784;9.190;2023-04-29T01:54:39;14.20;99.90
10964;DHT22;5534;48.784;9.190;2023-04-29T01:57:05;14.30;99.90
10964;DHT22;5534;48.784;9.190;2023-04-29T01:59:31;14.30;99.90
10964;DHT22;5534;48.784;9.190;2023-04-29T02:01:57;14.20;99.90
10964;DHT22;5534;48.784;9.190;2023-04-29T02:04:26;14.20;99.90
10964;DHT22;5534;48.784;9.190;2023-04-29T02:06:53;14.10;99.90
10964;DHT22;5534;48.784;9.190;2023-04-29T02:09:18;14.20;99.90
10964;DHT22;5534;48.784;9.190;2023-04-29T02:11:44;14.00;99.90
10964;DHT22;5534;48.784;9.190;2023-04-29T02:14:10;14.20;99.90
10964;DHT22;5534;48.784;9.190;2023-04-29T02:16:37;14.10;99.90
10964;DHT22;5534;48.784;9.190;2023-04-29T02:19:03;14.20;99.90
10964;DHT22;5534;48.784;9.190;2023-04-29T02:21:28;14.20;99.90
10964;DHT22;5534;48.784;9.190;2023-04-29T02:23:54;14.10;99.90
10964;DHT22;5534;48.784;9.190;2023-04-29T02:26:20;14.00;99.90
10964;DHT22;5534;48.784;9.190;2023-04-29T02:28:46;14.00;99.90
10964;DHT22;5534;48.784;9.190;2023-04-29T02:31:12;14.00;99.90
10964;DHT22;5534;48.784;9.190;2023-04-29T02:33:39;14.00;99.90
10964;DHT22;5534;48.784;9.190;2023-04-29T02:36:06;14.10;99.90
10964;DHT22;5534;48.784;9.190;2023-04-29T02:38:32;14.20;99.90
10964;DHT22;5534;48.784;9.190;2023-04-29T02:40:58;14.10;99.90
10964;DHT22;5534;48.784;9.190;2023-04-29T02:43:24;14.00;99.90
10964;DHT22;5534;48.784;9.190;2023-04-29T02:45:49;14.00;99.90
10964;DHT22;5534;48.784;9.190;2023-04-29T02:48:15;14.00;99.90
10964;DHT22;5534;48.784;9.190;2023-04-29T02:50:41;14.20;99.90
10964;DHT22;5534;48.784;9.190;2023-04-29T02:53:07;14.10;99.90
10964;DHT22;5534;48.784;9.190;2023-04-29T02:55:32;14.00;99.90
10964;DHT22;5534;48.784;9.190;2023-04-29T02:57:58;14.00;99.90
10964;DHT22;5534;48.784;9.190;2023-04-29T03:00:24;13.90;99.90
10964;DHT22;5534;48.784;9.190;2023-04-29T03:02:50;14.00;99.90
10964;DHT22;5534;48.784;9.190;2023-04-29T03:05:15;14.10;99.90
10964;DHT22;5534;48.784;9.190;2023-04-29T03:07:41;14.00;99.90
10964;DHT22;5534;48.784;9.190;2023-04-29T03:10:07;14.00;99.90
10964;DHT22;5534;48.784;9.190;2023-04-29T03:12:33;14.00;99.90
10964;DHT22;5534;48.784;9.190;2023-04-29T03:14:59;14.00;99.90
10964;DHT22;5534;48.784;9.190;2023-04-29T03:17:25;14.00;99.90
10964;DHT22;5534;48.784;9.190;2023-04-29T03:19:51;14.00;99.90
10964;DHT22;5534;48.784;9.190;2023-04-29T03:22:19;14.10;99.90
10964;DHT22;5534;48.784;9.190;2023-04-29T03:24:44;14.10;99.90
10964;DHT22;5534;48.784;9.190;2023-04-29T03:27:11;14.10;99.90
10964;DHT22;5534;48.784;9.190;2023-04-29T03:29:36;14.30;99.90
10964;DHT22;5534;48.784;9.190;2023-04-29T03:32:02;14.30;99.90
10964;DHT22;5534;48.784;9.190;2023-04-29T03:34:28;14.30;99.90
10964;DHT22;5534;48.784;9.190;2023-04-29T03:36:54;14.30;99.90
10964;DHT22;5534;48.784;9.190;2023-04-29T03:39:20;14.40;99.90
10964;DHT22;5534;48.784;9.190;2023-04-29T03:41:46;14.40;99.90
10964;DHT22;5534;48.784;9.190;2023-04-29T03:44:12;14.40;99.90
10964;DHT22;5534;48.784;9.190;2023-04-29T03:46:38;14.30;99.90
10964;DHT22;5534;48.784;9.190;2023-04-29T03:49:04;14.30;99.90
10964;DHT22;5534;48.784;9.190;2023-04-29T03:51:29;14.30;99.90
10964;DHT22;5534;48.784;9.190;2023-04-29T03:53:56;14.30;99.90
10964;DHT22;5534;48.784;9.190;2023-04-29T03:56:25;14.30;99.90
10964;DHT22;5534;48.784;9.190;2023-04-29T03:58:51;14.20;99.90
10964;DHT22;5534;48.784;9.190;2023-04-29T04:01:17;14.00;99.90
10964;DHT22;5534;48.784;9.190;2023-04-29T04:03:44;13.90;99.90
10964;DHT22;5534;48.784;9.190;2023-04-29T04:06:10;14.00;99.90
10964;DHT22;5534;48.784;9.190;2023-04-29T04:08:35;13.90;99.90
10964;DHT22;5534;48.784;9.190;2023-04-29T04:11:01;13.80;99.90
10964;DHT22;5534;48.784;9.190;2023-04-29T04:13:31;13.90;99.90
10964;DHT22;5534;48.784;9.190;2023-04-29T04:15:57;14.00;99.90
10964;DHT22;5534;48.784;9.190;2023-04-29T04:18:23;14.00;99.90
10964;DHT22;5534;48.784;9.190;2023-04-29T04:20:49;14.00;99.90
10964;DHT22;5534;48.784;9.190;2023-04-29T04:23:15;14.00;99.90
10964;DHT22;5534;48.784;9.190;2023-04-29T04:25:48;14.00;99.90
10964;DHT22;5534;48.784;9.190;2023-04-29T04:28:14;14.00;99.90
10964;DHT22;5534;48.784;9.190;2023-04-29T04:30:40;13.90;99.90
10964;DHT22;5534;48.784;9.190;2023-04-29T04:33:07;13.90;99.90
10964;DHT22;5534;48.784;9.190;2023-04-29T04:35:33;13.80;99.90
10964;DHT22;5534;48.784;9.190;2023-04-29T04:37:59;13.80;99.90
10964;DHT22;5534;48.784;9.190;2023-04-29T04:40:25;13.80;99.90
10964;DHT22;5534;48.784;9.190;2023-04-29T04:42:50;13.70;99.90
10964;DHT22;5534;48.784;9.190;2023-04-29T04:45:16;13.80;99.90
10964;DHT22;5534;48.784;9.190;2023-04-29T04:47:42;13.70;99.90
10964;DHT22;5534;48.784;9.190;2023-04-29T04:50:08;13.70;99.90
10964;DHT22;5534;48.784;9.190;2023-04-29T04:52:34;13.70;99.90
10964;DHT22;5534;48.784;9.190;2023-04-29T04:55:00;13.70;99.90
10964;DHT22;5534;48.784;9.190;2023-04-29T04:57:26;13.60;99.90
10964;DHT22;5534;48.784;9.190;2023-04-29T04:59:51;13.70;99.90
10964;DHT22;5534;48.784;9.190;2023-04-29T05:02:17;13.60;99.90
10964;DHT22;5534;48.784;9.190;2023-04-29T05:04:43;13.70;99.90
10964;DHT22;5534;48.784;9.190;2023-04-29T05:07:09;13.70;99.90
10964;DHT22;5534;48.784;9.190;2023-04-29T05:09:35;13.70;99.90
10964;DHT22;5534;48.784;9.190;2023-04-29T05:12:02;13.70;99.90
10964;DHT22;5534;48.784;9.190;2023-04-29T05:14:28;13.70;99.90
10964;DHT22;5534;48.784;9.190;2023-04-29T05:17:00;13.70;99.90
10964;DHT22;5534;48.784;9.190;2023-04-29T05:19:26;13.60;99.90
10964;DHT22;5534;48.784;9.190;2023-04-29T05:21:52;13.60;99.90
10964;DHT22;5534;48.784;9.190;2023-04-29T05:24:18;13.60;99.90
10964;DHT22;5534;48.784;9.190;2023-04-29T05:26:43;13.60;99.90
10964;DHT22;5534;48.784;9.190;2023-04-29T05:29:09;13.80;99.90
10964;DHT22;5534;48.784;9.190;2023-04-29T05:31:36;14.00;99.90
10964;DHT22;5534;48.784;9.190;2023-04-29T05:34:01;14.00;99.90
10964;DHT22;5534;48.784;9.190;2023-04-29T05:36:27;13.90;99.90
10964;DHT22;5534;48.784;9.190;2023-04-29T05:38:53;14.10;99.90
10964;DHT22;5534;48.784;9.190;2023-04-29T05:41:22;14.30;99.90
10964;DHT22;5534;48.784;9.190;2023-04-29T05:43:50;14.30;99.90
10964;DHT22;5534;48.784;9.190;2023-04-29T05:46:15;14.50;99.90
10964;DHT22;5534;48.784;9.190;2023-04-29T05:48:42;14.40;99.90
10964;DHT22;5534;48.784;9.190;2023-04-29T05:51:07;14.70;99.90
10964;DHT22;5534;48.784;9.190;2023-04-29T05:53:33;14.70;99.90
10964;DHT22;5534;48.784;9.190;2023-04-29T05:56:04;14.90;99.90
10964;DHT22;5534;48.784;9.190;2023-04-29T05:58:35;15.00;99.90
10964;DHT22;5534;48.784;9.190;2023-04-29T06:01:01;14.90;99.90
10964;DHT22;5534;48.784;9.190;2023-04-29T06:03:27;15.00;99.90
10964;DHT22;5534;48.784;9.190;2023-04-29T06:05:54;14.90;99.90
10964;DHT22;5534;48.784;9.190;2023-04-29T06:08:20;15.00;99.90
10964;DHT22;5534;48.784;9.190;2023-04-29T06:10:46;14.90;99.90
10964;DHT22;5534;48.784;9.190;2023-04-29T06:13:12;15.00;99.90
10964;DHT22;5534;48.784;9.190;2023-04-29T06:15:38;15.10;99.90
10964;DHT22;5534;48.784;9.190;2023-04-29T06:18:04;15.10;99.90
10964;DHT22;5534;48.784;9.190;2023-04-29T06:20:30;15.10;99.90
10964;DHT22;5534;48.784;9.190;2023-04-29T06:22:55;15.20;99.90
10964;DHT22;5534;48.784;9.190;2023-04-29T06:25:21;15.20;99.90
10964;DHT22;5534;48.784;9.190;2023-04-29T06:27:47;15.20;99.90
10964;DHT22;5534;48.784;9.190;2023-04-29T06:30:13;15.20;99.90
10964;DHT22;5534;48.784;9.190;2023-04-29T06:32:39;15.20;99.90
10964;DHT22;5534;48.784;9.190;2023-04-29T06:35:06;15.30;99.90
10964;DHT22;5534;48.784;9.190;2023-04-29T06:37:32;15.40;99.90
10964;DHT22;5534;48.784;9.190;2023-04-29T06:39:57;16.60;99.90
10964;DHT22;5534;48.784;9.190;2023-04-29T06:42:23;18.10;99.90
10964;DHT22;5534;48.784;9.190;2023-04-29T06:44:49;18.30;99.90
10964;DHT22;5534;48.784;9.190;2023-04-29T06:47:15;18.70;99.90
10964;DHT22;5534;48.784;9.190;2023-04-29T06:49:40;18.60;99.90
10964;DHT22;5534;48.784;9.190;2023-04-29T06:52:08;18.70;99.90
10964;DHT22;5534;48.784;9.190;2023-04-29T06:54:34;18.00;99.90
10964;DHT22;5534;48.784;9.190;2023-04-29T06:57:00;18.90;99.90
10964;DHT22;5534;48.784;9.190;2023-04-29T06:59:26;20.40;99.90
10964;DHT22;5534;48.784;9.190;2023-04-29T07:01:52;20.30;99.90
10964;DHT22;5534;48.784;9.190;2023-04-29T07:04:18;19.70;99.90
10964;DHT22;5534;48.784;9.190;2023-04-29T07:06:44;19.00;99.90
10964;DHT22;5534;48.784;9.190;2023-04-29T07:09:14;18.20;99.90
10964;DHT22;5534;48.784;9.190;2023-04-29T07:11:40;17.60;99.90
10964;DHT22;5534;48.784;9.190;2023-04-29T07:14:05;17.50;99.90
10964;DHT22;5534;48.784;9.190;2023-04-29T07:16:32;17.00;99.90
10964;DHT22;5534;48.784;9.190;2023-04-29T07:18:58;16.70;99.90
10964;DHT22;5534;48.784;9.190;2023-04-29T07:21:24;16.50;99.90
10964;DHT22;5534;48.784;9.190;2023-04-29T07:23:49;16.30;99.90
10964;DHT22;5534;48.784;9.190;2023-04-29T07:26:16;16.10;99.90
10964;DHT22;5534;48.784;9.190;2023-04-29T07:28:44;15.90;99.90
10964;DHT22;5534;48.784;9.190;2023-04-29T07:31:10;15.80;99.90
10964;DHT22;5534;48.784;9.190;2023-04-29T07:33:39;15.70;99.90
10964;DHT22;5534;48.784;9.190;2023-04-29T07:36:05;15.60;99.90
10964;DHT22;5534;48.784;9.190;2023-04-29T07:38:32;15.60;99.90
10964;DHT22;5534;48.784;9.190;2023-04-29T07:40:59;15.60;99.90
10964;DHT22;5534;48.784;9.190;2023-04-29T07:43:24;15.80;99.90
10964;DHT22;5534;48.784;9.190;2023-04-29T07:45:50;15.90;99.90
10964;DHT22;5534;48.784;9.190;2023-04-29T07:48:16;15.90;99.90
10964;DHT22;5534;48.784;9.190;2023-04-29T07:50:42;15.90;99.90
10964;DHT22;5534;48.784;9.190;2023-04-29T07:53:08;15.80;99.90
10964;DHT22;5534;48.784;9.190;2023-04-29T07:55:36;15.90;99.90
10964;DHT22;5534;48.784;9.190;2023-04-29T07:58:02;15.80;99.90
10964;DHT22;5534;48.784;9.190;2023-04-29T08:00:28;15.90;99.90
10964;DHT22;5534;48.784;9.190;2023-04-29T08:02:55;16.00;99.90
10964;DHT22;5534;48.784;9.190;2023-04-29T08:05:21;16.00;99.90
10964;DHT22;5534;48.784;9.190;2023-04-29T08:07:48;16.00;99.90
10964;DHT22;5534;48.784;9.190;2023-04-29T08:10:18;16.00;99.90
10964;DHT22;5534;48.784;9.190;2023-04-29T08:12:48;16.00;99.90
10964;DHT22;5534;48.784;9.190;2023-04-29T08:15:13;16.10;99.90
10964;DHT22;5534;48.784;9.190;2023-04-29T08:17:40;16.00;99.90
10964;DHT22;5534;48.784;9.190;2023-04-29T08:20:06;16.10;99.90
10964;DHT22;5534;48.784;9.190;2023-04-29T08:22:33;16.10;99.90
10964;DHT22;5534;48.784;9.190;2023-04-29T08:24:58;16.10;99.90
10964;DHT22;5534;48.784;9.190;2023-04-29T08:27:24;16.30;99.90
10964;DHT22;5534;48.784;9.190;2023-04-29T08:29:51;16.40;99.90
10964;DHT22;5534;48.784;9.190;2023-04-29T08:32:17;16.40;99.90
10964;DHT22;5534;48.784;9.190;2023-04-29T08:34:42;16.40;99.90
10964;DHT22;5534;48.784;9.190;2023-04-29T08:37:09;16.50;99.90
10964;DHT22;5534;48.784;9.190;2023-04-29T08:39:36;16.30;99.90
10964;DHT22;5534;48.784;9.190;2023-04-29T08:42:08;16.20;99.90
10964;DHT22;5534;48.784;9.190;2023-04-29T08:44:35;16.10;99.90
10964;DHT22;5534;48.784;9.190;2023-04-29T08:47:02;16.10;99.90
10964;DHT22;5534;48.784;9.190;2023-04-29T08:49:28;16.10;99.90
10964;DHT22;5534;48.784;9.190;2023-04-29T08:51:55;16.00;99.90
10964;DHT22;5534;48.784;9.190;2023-04-29T08:54:20;16.00;99.90
10964;DHT22;5534;48.784;9.190;2023-04-29T08:56:46;16.00;99.90
10964;DHT22;5534;48.784;9.190;2023-04-29T08:59:14;15.90;99.90
10964;DHT22;5534;48.784;9.190;2023-04-29T09:01:42;15.90;99.90
10964;DHT22;5534;48.784;9.190;2023-04-29T09:06:40;15.80;99.90
10964;DHT22;5534;48.784;9.190;2023-04-29T09:09:06;15.90;99.90
10964;DHT22;5534;48.784;9.190;2023-04-29T09:11:33;15.90;99.90
10964;DHT22;5534;48.784;9.190;2023-04-29T09:14:00;16.00;99.90
10964;DHT22;5534;48.784;9.190;2023-04-29T09:16:27;16.10;99.90
10964;DHT22;5534;48.784;9.190;2023-04-29T09:18:53;16.20;99.90
10964;DHT22;5534;48.784;9.190;2023-04-29T09:23:48;16.10;99.90
10964;DHT22;5534;48.784;9.190;2023-04-29T09:26:15;16.00;99.90
10964;DHT22;5534;48.784;9.190;2023-04-29T09:28:41;15.90;99.90
10964;DHT22;5534;48.784;9.190;2023-04-29T09:31:10;16.20;99.90
10964;DHT22;5534;48.784;9.190;2023-04-29T09:33:53;16.10;99.90
10964;DHT22;5534;48.784;9.190;2023-04-29T09:36:58;16.20;99.90
10964;DHT22;5534;48.784;9.190;2023-04-29T09:39:24;16.10;99.90
10964;DHT22;5534;48.784;9.190;2023-04-29T09:44:22;16.50;99.90
10964;DHT22;5534;48.784;9.190;2023-04-29T09:49:36;16.60;99.90
10964;DHT22;5534;48.784;9.190;2023-04-29T09:52:10;16.60;99.90
10964;DHT22;5534;48.784;9.190;2023-04-29T09:54:37;16.60;99.90
10964;DHT22;5534;48.784;9.190;2023-04-29T09:57:04;16.70;99.90
10964;DHT22;5534;48.784;9.190;2023-04-29T09:59:38;16.80;99.90
10964;DHT22;5534;48.784;9.190;2023-04-29T10:02:12;16.70;99.90
10964;DHT22;5534;48.784;9.190;2023-04-29T10:04:40;16.50;99.90
10964;DHT22;5534;48.784;9.190;2023-04-29T10:07:07;16.50;99.90
10964;DHT22;5534;48.784;9.190;2023-04-29T10:09:35;16.50;99.90
10964;DHT22;5534;48.784;9.190;2023-04-29T10:12:04;16.80;99.90
10964;DHT22;5534;48.784;9.190;2023-04-29T10:14:38;17.20;99.90
10964;DHT22;5534;48.784;9.190;2023-04-29T10:17:14;17.20;99.90
10964;DHT22;5534;48.784;9.190;2023-04-29T10:19:51;17.10;99.90
10964;DHT22;5534;48.784;9.190;2023-04-29T10:22:25;17.10;99.90
10964;DHT22;5534;48.784;9.190;2023-04-29T10:24:54;16.90;99.90
10964;DHT22;5534;48.784;9.190;2023-04-29T10:27:23;16.80;99.90
10964;DHT22;5534;48.784;9.190;2023-04-29T10:29:49;16.60;99.90
10964;DHT22;5534;48.784;9.190;2023-04-29T10:32:16;16.60;99.90
10964;DHT22;5534;48.784;9.190;2023-04-29T10:34:43;16.60;99.90
10964;DHT22;5534;48.784;9.190;2023-04-29T10:37:10;16.70;99.90
10964;DHT22;5534;48.784;9.190;2023-04-29T10:39:41;17.10;99.90
10964;DHT22;5534;48.784;9.190;2023-04-29T10:42:33;17.30;99.90
10964;DHT22;5534;48.784;9.190;2023-04-29T10:48:09;17.30;99.90
10964;DHT22;5534;48.784;9.190;2023-04-29T10:50:40;17.00;99.90
10964;DHT22;5534;48.784;9.190;2023-04-29T10:53:23;16.90;99.90
10964;DHT22;5534;48.784;9.190;2023-04-29T10:55:57;16.70;99.90
10964;DHT22;5534;48.784;9.190;2023-04-29T10:58:44;16.70;99.90
10964;DHT22;5534;48.784;9.190;2023-04-29T11:01:16;16.90;99.90
10964;DHT22;5534;48.784;9.190;2023-04-29T11:06:22;16.90;99.90
10964;DHT22;5534;48.784;9.190;2023-04-29T11:09:02;17.00;99.90
10964;DHT22;5534;48.784;9.190;2023-04-29T11:11:52;16.90;99.90
10964;DHT22;5534;48.784;9.190;2023-04-29T11:14:29;16.90;99.90
10964;DHT22;5534;48.784;9.190;2023-04-29T11:17:01;17.00;99.90
10964;DHT22;5534;48.784;9.190;2023-04-29T11:19:32;17.20;99.90
10964;DHT22;5534;48.784;9.190;2023-04-29T11:24:51;17.60;99.90
10964;DHT22;5534;48.784;9.190;2023-04-29T11:27:18;17.40;99.90
10964;DHT22;5534;48.784;9.190;2023-04-29T11:29:45;17.30;99.90
10964;DHT22;5534;48.784;9.190;2023-04-29T11:32:14;17.20;99.90
10964;DHT22;5534;48.784;9.190;2023-04-29T11:34:39;17.20;99.90
10964;DHT22;5534;48.784;9.190;2023-04-29T11:37:05;17.30;99.90
10964;DHT22;5534;48.784;9.190;2023-04-29T11:39:37;17.40;99.90
10964;DHT22;5534;48.784;9.190;2023-04-29T11:42:04;17.50;99.90
10964;DHT22;5534;48.784;9.190;2023-04-29T11:44:33;17.50;99.90
10964;DHT22;5534;48.784;9.190;2023-04-29T11:47:07;17.50;99.90
10964;DHT22;5534;48.784;9.190;2023-04-29T11:49:33;17.50;99.90
10964;DHT22;5534;48.784;9.190;2023-04-29T11:52:00;17.50;99.90
10964;DHT22;5534;48.784;9.190;2023-04-29T11:54:26;17.50;99.90
10964;DHT22;5534;48.784;9.190;2023-04-29T11:56:53;17.50;99.90
10964;DHT22;5534;48.784;9.190;2023-04-29T11:59:20;17.60;99.90
10964;DHT22;5534;48.784;9.190;2023-04-29T12:01:47;17.70;99.90
10964;DHT22;5534;48.784;9.190;2023-04-29T12:04:13;17.80;99.90
10964;DHT22;5534;48.784;9.190;2023-04-29T12:06:39;17.90;99.90
10964;DHT22;5534;48.784;9.190;2023-04-29T12:09:06;17.90;99.90
10964;DHT22;5534;48.784;9.190;2023-04-29T12:11:36;17.90;99.90
10964;DHT22;5534;48.784;9.190;2023-04-29T12:14:02;18.00;99.90
10964;DHT22;5534;48.784;9.190;2023-04-29T12:16:34;17.90;99.90
10964;DHT22;5534;48.784;9.190;2023-04-29T12:19:00;17.80;99.90
10964;DHT22;5534;48.784;9.190;2023-04-29T12:21:26;17.90;99.90
10964;DHT22;5534;48.784;9.190;2023-04-29T12:23:52;18.00;99.90
10964;DHT22;5534;48.784;9.190;2023-04-29T12:26:18;17.90;99.90
10964;DHT22;5534;48.784;9.190;2023-04-29T12:28:47;17.90;99.90
10964;DHT22;5534;48.784;9.190;2023-04-29T12:31:15;18.00;99.90
10964;DHT22;5534;48.784;9.190;2023-04-29T12:33:42;17.90;99.90
10964;DHT22;5534;48.784;9.190;2023-04-29T12:36:17;17.80;99.90
10964;DHT22;5534;48.784;9.190;2023-04-29T12:38:43;17.80;99.90
10964;DHT22;5534;48.784;9.190;2023-04-29T12:41:09;17.60;99.90
10964;DHT22;5534;48.784;9.190;2023-04-29T12:43:38;17.50;99.90
10964;DHT22;5534;48.784;9.190;2023-04-29T12:46:06;17.40;99.90
10964;DHT22;5534;48.784;9.190;2023-04-29T12:48:34;17.50;99.90
10964;DHT22;5534;48.784;9.190;2023-04-29T12:51:00;17.60;99.90
10964;DHT22;5534;48.784;9.190;2023-04-29T12:53:28;17.90;99.90
10964;DHT22;5534;48.784;9.190;2023-04-29T12:55:54;17.90;99.90
10964;DHT22;5534;48.784;9.190;2023-04-29T12:58:21;17.70;99.90
10964;DHT22;5534;48.784;9.190;2023-04-29T13:00:47;17.70;99.90
10964;DHT22;5534;48.784;9.190;2023-04-29T13:03:13;17.80;99.90
10964;DHT22;5534;48.784;9.190;2023-04-29T13:05:39;18.00;99.90
10964;DHT22;5534;48.784;9.190;2023-04-29T13:08:05;17.90;99.90
10964;DHT22;5534;48.784;9.190;2023-04-29T13:10:34;18.00;99.90
10964;DHT22;5534;48.784;9.190;2023-04-29T13:13:00;18.10;99.90
10964;DHT22;5534;48.784;9.190;2023-04-29T13:15:26;18.10;99.90
10964;DHT22;5534;48.784;9.190;2023-04-29T13:17:52;18.10;99.90
10964;DHT22;5534;48.784;9.190;2023-04-29T13:20:18;18.00;99.90
10964;DHT22;5534;48.784;9.190;2023-04-29T13:22:45;18.10;99.90
10964;DHT22;5534;48.784;9.190;2023-04-29T13:25:10;18.10;99.90
10964;DHT22;5534;48.784;9.190;2023-04-29T13:27:37;18.30;99.90
10964;DHT22;5534;48.784;9.190;2023-04-29T13:30:07;18.40;99.90
10964;DHT22;5534;48.784;9.190;2023-04-29T13:32:33;18.20;99.90
10964;DHT22;5534;48.784;9.190;2023-04-29T13:34:59;17.90;99.90
10964;DHT22;5534;48.784;9.190;2023-04-29T13:37:26;17.80;99.90
10964;DHT22;5534;48.784;9.190;2023-04-29T13:39:52;17.90;99.90
10964;DHT22;5534;48.784;9.190;2023-04-29T13:42:18;18.00;99.90
10964;DHT22;5534;48.784;9.190;2023-04-29T13:44:43;18.00;99.90
10964;DHT22;5534;48.784;9.190;2023-04-29T13:47:12;17.90;99.90
10964;DHT22;5534;48.784;9.190;2023-04-29T13:49:42;17.90;99.90
10964;DHT22;5534;48.784;9.190;2023-04-29T13:52:11;17.80;99.90
10964;DHT22;5534;48.784;9.190;2023-04-29T13:54:38;17.80;99.90
10964;DHT22;5534;48.784;9.190;2023-04-29T13:57:04;17.70;99.90
10964;DHT22;5534;48.784;9.190;2023-04-29T13:59:34;17.80;99.90
10964;DHT22;5534;48.784;9.190;2023-04-29T14:02:01;17.90;99.90
10964;DHT22;5534;48.784;9.190;2023-04-29T14:04:28;17.90;99.90
10964;DHT22;5534;48.784;9.190;2023-04-29T14:06:55;17.90;99.90
10964;DHT22;5534;48.784;9.190;2023-04-29T14:09:22;17.90;99.90
10964;DHT22;5534;48.784;9.190;2023-04-29T14:11:49;18.00;99.90
10964;DHT22;5534;48.784;9.190;2023-04-29T14:14:15;18.00;99.90
10964;DHT22;5534;48.784;9.190;2023-04-29T14:16:42;18.00;99.90
10964;DHT22;5534;48.784;9.190;2023-04-29T14:19:08;17.90;99.90
10964;DHT22;5534;48.784;9.190;2023-04-29T14:21:34;17.80;99.90
10964;DHT22;5534;48.784;9.190;2023-04-29T14:24:01;18.00;99.90
10964;DHT22;5534;48.784;9.190;2023-04-29T14:26:28;17.90;99.90
10964;DHT22;5534;48.784;9.190;2023-04-29T14:28:57;17.70;99.90
10964;DHT22;5534;48.784;9.190;2023-04-29T14:31:32;17.50;99.90
10964;DHT22;5534;48.784;9.190;2023-04-29T14:34:00;17.50;99.90
10964;DHT22;5534;48.784;9.190;2023-04-29T14:36:26;17.40;99.90
10964;DHT22;5534;48.784;9.190;2023-04-29T14:38:52;17.40;99.90
10964;DHT22;5534;48.784;9.190;2023-04-29T14:41:18;17.40;99.90
10964;DHT22;5534;48.784;9.190;2023-04-29T14:43:46;17.40;99.90
10964;DHT22;5534;48.784;9.190;2023-04-29T14:46:12;17.50;99.90
10964;DHT22;5534;48.784;9.190;2023-04-29T14:48:38;17.40;99.90
10964;DHT22;5534;48.784;9.190;2023-04-29T14:51:04;17.20;99.90
10964;DHT22;5534;48.784;9.190;2023-04-29T14:53:31;17.20;99.90
10964;DHT22;5534;48.784;9.190;2023-04-29T14:55:56;17.20;99.90
10964;DHT22;5534;48.784;9.190;2023-04-29T14:58:22;16.80;99.90
10964;DHT22;5534;48.784;9.190;2023-04-29T15:00:48;16.80;99.90
10964;DHT22;5534;48.784;9.190;2023-04-29T15:03:16;16.90;99.90
10964;DHT22;5534;48.784;9.190;2023-04-29T15:05:42;17.00;99.90
10964;DHT22;5534;48.784;9.190;2023-04-29T15:08:08;17.10;99.90
10964;DHT22;5534;48.784;9.190;2023-04-29T15:10:34;17.30;99.90
10964;DHT22;5534;48.784;9.190;2023-04-29T15:13:00;17.50;99.90
10964;DHT22;5534;48.784;9.190;2023-04-29T15:15:26;17.30;99.90
10964;DHT22;5534;48.784;9.190;2023-04-29T15:17:53;17.30;99.90
10964;DHT22;5534;48.784;9.190;2023-04-29T15:20:19;17.30;99.90
10964;DHT22;5534;48.784;9.190;2023-04-29T15:22:45;17.30;99.90
10964;DHT22;5534;48.784;9.190;2023-04-29T15:25:12;17.20;99.90
10964;DHT22;5534;48.784;9.190;2023-04-29T15:27:37;17.20;99.90
10964;DHT22;5534;48.784;9.190;2023-04-29T15:30:04;17.10;99.90
10964;DHT22;5534;48.784;9.190;2023-04-29T15:32:30;17.20;99.90
10964;DHT22;5534;48.784;9.190;2023-04-29T15:35:00;17.30;99.90
10964;DHT22;5534;48.784;9.190;2023-04-29T15:37:26;17.20;99.90
10964;DHT22;5534;48.784;9.190;2023-04-29T15:39:55;17.00;99.90
10964;DHT22;5534;48.784;9.190;2023-04-29T15:42:21;16.80;99.90
10964;DHT22;5534;48.784;9.190;2023-04-29T15:44:46;16.70;99.90
10964;DHT22;5534;48.784;9.190;2023-04-29T15:47:12;16.60;99.90
10964;DHT22;5534;48.784;9.190;2023-04-29T15:49:38;16.60;99.90
10964;DHT22;5534;48.784;9.190;2023-04-29T15:52:04;16.60;99.90
10964;DHT22;5534;48.784;9.190;2023-04-29T15:54:30;16.50;99.90
10964;DHT22;5534;48.784;9.190;2023-04-29T15:56:56;16.40;99.90
10964;DHT22;5534;48.784;9.190;2023-04-29T15:59:22;16.40;99.90
10964;DHT22;5534;48.784;9.190;2023-04-29T16:01:47;16.40;99.90
10964;DHT22;5534;48.784;9.190;2023-04-29T16:04:13;16.40;99.90
10964;DHT22;5534;48.784;9.190;2023-04-29T16:06:39;16.30;99.90
10964;DHT22;5534;48.784;9.190;2023-04-29T16:09:05;16.40;99.90
10964;DHT22;5534;48.784;9.190;2023-04-29T16:11:31;16.40;99.90
10964;DHT22;5534;48.784;9.190;2023-04-29T16:13:57;16.40;99.90
10964;DHT22;5534;48.784;9.190;2023-04-29T16:16:23;16.30;99.90